CheckWX is a tool to help pilots better visualize weather data.  It is not intended as a substitute for an official pre-flight weather briefing.

06:44:52 UTC

KELO METAR
Ely Municipal Airport
Ely, Minnesota, USA
Current

10 mins ago

KELO 210635Z AUTO 00000KT 10SM CLR 01/M01 A3016 RMK AO2
Observed
May-21 @ 06:35 UTC
Visibility
10 SM
Flight Rules
VFR
Cloud Levels
  • Clear skies
Temperature
C / 34°F
Dewpoint
-1°C / 30°F
Humidity
87%
Altimeter
30.16" Hg
Pressure
1021.32 hPa
Previous

29 mins ago

KELO 210616Z AUTO 00000KT 10SM CLR 01/M01 A3015 RMK AO2
Observed
May-21 @ 06:16 UTC
Visibility
10 SM
Flight Rules
VFR
Cloud Levels
  • Clear skies
Temperature
C / 34°F
Dewpoint
-1°C / 30°F
Humidity
87%
Altimeter
30.15" Hg
Pressure
1021.02 hPa
Previous

49 mins ago

KELO 210556Z AUTO 00000KT 10SM CLR 01/M01 A3015 RMK AO2
Observed
May-21 @ 05:56 UTC
Visibility
10 SM
Flight Rules
VFR
Cloud Levels
  • Clear skies
Temperature
C / 34°F
Dewpoint
-1°C / 30°F
Humidity
87%
Altimeter
30.15" Hg
Pressure
1021.02 hPa